createdAt,value
2018-04-17T00:01:38.171Z,99.30
2018-04-17T00:06:41.535Z,99.60
2018-04-17T00:11:45.269Z,99.60
2018-04-17T00:17:13.296Z,99.60
2018-04-17T00:22:17.038Z,99.60
2018-04-17T00:27:21.591Z,99.60
2018-04-17T00:32:25.379Z,99.60
2018-04-17T00:37:32.306Z,99.60
2018-04-17T00:42:35.928Z,99.60
2018-04-17T00:47:42.023Z,99.60
2018-04-17T00:52:45.264Z,99.60
2018-04-17T00:57:49.724Z,99.60
2018-04-17T01:02:54.518Z,99.60
2018-04-17T01:07:57.739Z,99.60
2018-04-17T01:13:01.495Z,99.60
2018-04-17T01:18:05.158Z,99.60
2018-04-17T01:23:08.387Z,99.60
2018-04-17T01:28:11.699Z,99.60
2018-04-17T01:33:17.782Z,99.60
2018-04-17T01:38:21.092Z,99.60
2018-04-17T01:43:26.009Z,99.60
2018-04-17T01:48:29.460Z,99.60
2018-04-17T01:53:33.127Z,99.60
2018-04-17T01:58:39.595Z,99.60
2018-04-17T02:03:42.966Z,99.60
2018-04-17T02:08:46.594Z,99.40
2018-04-17T02:13:50.199Z,99.60
2018-04-17T02:18:53.914Z,99.60
2018-04-17T02:23:57.528Z,99.60
2018-04-17T02:29:00.764Z,99.60
2018-04-17T02:34:03.984Z,99.10
2018-04-17T02:39:07.248Z,98.60
2018-04-17T02:44:10.890Z,99.60
2018-04-17T02:49:14.141Z,99.60
2018-04-17T02:54:17.436Z,99.60
2018-04-17T02:59:20.664Z,99.60
2018-04-17T03:04:23.888Z,99.60
2018-04-17T03:09:27.564Z,99.60
2018-04-17T03:14:30.826Z,99.60
2018-04-17T03:19:34.081Z,99.60
2018-04-17T03:24:37.321Z,99.60
2018-04-17T03:29:41.537Z,99.60
2018-04-17T03:34:44.751Z,99.60
2018-04-17T03:39:50.434Z,99.60
2018-04-17T03:44:53.710Z,99.60
2018-04-17T03:49:56.946Z,99.60
2018-04-17T03:55:00.184Z,99.60
2018-04-17T04:00:03.404Z,99.60
2018-04-17T04:05:06.613Z,99.60
2018-04-17T04:10:09.938Z,99.60
2018-04-17T04:15:13.151Z,99.60
2018-04-17T04:20:28.646Z,99.60
2018-04-17T04:31:16.527Z,99.60
2018-04-17T04:36:20.139Z,99.60
2018-04-17T04:41:23.776Z,99.60
2018-04-17T04:46:27.032Z,99.60
2018-04-17T04:51:30.260Z,99.60
2018-04-17T04:56:33.544Z,99.60
2018-04-17T05:01:36.747Z,99.60
2018-04-17T05:06:39.972Z,99.60
2018-04-17T05:11:43.189Z,99.60
2018-04-17T05:16:46.465Z,99.60
2018-04-17T05:21:49.709Z,99.60
2018-04-17T05:26:53.374Z,99.60
2018-04-17T05:31:57.286Z,99.60
2018-04-17T05:37:00.500Z,99.60
2018-04-17T05:42:03.736Z,99.60
2018-04-17T05:47:06.939Z,99.60
2018-04-17T05:52:10.151Z,99.60
2018-04-17T05:57:14.040Z,99.60
2018-04-17T06:02:17.261Z,99.60
2018-04-17T06:07:20.466Z,99.60
2018-04-17T06:12:23.985Z,99.60
2018-04-17T06:17:27.218Z,99.60
2018-04-17T06:22:30.442Z,99.60
2018-04-17T06:27:33.672Z,99.60
2018-04-17T06:32:36.928Z,99.50
2018-04-17T06:37:40.642Z,98.40
2018-04-17T06:42:43.966Z,98.40
2018-04-17T06:47:47.593Z,98.10
2018-04-17T06:52:50.812Z,98.10
2018-04-17T06:57:54.048Z,97.90
2018-04-17T07:02:57.361Z,96.90
2018-04-17T07:08:00.695Z,96.10
2018-04-17T07:13:03.927Z,96.00
2018-04-17T07:18:07.142Z,95.80
2018-04-17T07:23:10.376Z,95.70
2018-04-17T07:28:13.606Z,95.10
2018-04-17T07:33:16.831Z,94.20
2018-04-17T07:38:20.536Z,94.00
2018-04-17T07:43:23.846Z,94.00
2018-04-17T07:48:38.896Z,93.50
2018-04-17T07:53:42.125Z,92.50
2018-04-17T07:58:45.369Z,91.70
2018-04-17T08:03:49.555Z,92.00
2018-04-17T08:08:53.208Z,90.90
2018-04-17T08:13:56.697Z,90.80
2018-04-17T08:19:00.535Z,90.40
2018-04-17T08:24:04.325Z,90.20
2018-04-17T08:29:07.848Z,90.20
2018-04-17T08:34:11.066Z,90.60
2018-04-17T08:39:14.327Z,89.80
2018-04-17T08:44:18.127Z,88.10
2018-04-17T08:49:21.589Z,88.80
2018-04-17T08:54:24.922Z,89.60
2018-04-17T08:59:28.537Z,87.10
2018-04-17T09:04:31.767Z,87.10
2018-04-17T09:09:35.122Z,87.30
2018-04-17T09:14:39.537Z,86.40
2018-04-17T09:19:42.767Z,86.20
2018-04-17T09:24:45.988Z,85.00
2018-04-17T09:29:49.603Z,84.30
2018-04-17T09:34:53.311Z,84.20
2018-04-17T09:39:56.920Z,83.80
2018-04-17T09:45:00.151Z,83.80
2018-04-17T09:50:03.361Z,83.10
2018-04-17T09:55:06.600Z,80.40
2018-04-17T10:00:09.837Z,81.20
2018-04-17T10:05:13.046Z,80.50
2018-04-17T10:10:16.268Z,80.60
2018-04-17T10:15:19.490Z,78.90
2018-04-17T10:20:22.718Z,78.80
2018-04-17T10:25:25.942Z,78.40
2018-04-17T10:30:29.162Z,77.80
2018-04-17T10:35:33.004Z,77.70
2018-04-17T10:40:36.641Z,76.00
2018-04-17T10:45:39.981Z,76.00
2018-04-17T10:50:43.202Z,76.50
2018-04-17T10:55:46.424Z,74.70
2018-04-17T11:00:49.647Z,75.10
2018-04-17T11:05:53.267Z,73.10
2018-04-17T11:10:56.941Z,73.70
2018-04-17T11:16:00.186Z,73.70
2018-04-17T11:21:04.006Z,72.30
2018-04-17T11:26:07.626Z,71.70
2018-04-17T11:31:10.879Z,71.70
2018-04-17T11:36:14.187Z,70.30
2018-04-17T11:41:17.420Z,66.70
2018-04-17T11:46:20.646Z,64.10
2018-04-17T11:51:24.349Z,58.00
2018-04-17T11:56:27.561Z,58.00
2018-04-17T12:01:31.271Z,56.20
2018-04-17T12:06:34.889Z,55.50
2018-04-17T12:11:38.116Z,55.50
2018-04-17T12:16:41.349Z,51.00
2018-04-17T12:21:44.574Z,52.80
2018-04-17T12:26:47.804Z,46.60
2018-04-17T12:31:51.022Z,51.60
2018-04-17T12:36:55.358Z,53.60
2018-04-17T12:41:58.984Z,50.40
2018-04-17T12:47:02.194Z,50.40
2018-04-17T12:52:05.428Z,46.30
2018-04-17T12:57:08.653Z,44.90
2018-04-17T13:02:11.876Z,45.70
2018-04-17T13:07:15.112Z,48.00
2018-04-17T13:12:18.339Z,46.60
2018-04-17T13:17:21.710Z,45.60
2018-04-17T13:22:25.364Z,47.20
2018-04-17T13:27:28.592Z,47.30
2018-04-17T13:32:31.817Z,46.20
2018-04-17T13:37:35.032Z,44.70
2018-04-17T13:42:38.251Z,43.90
2018-04-17T13:47:41.975Z,48.90
2018-04-17T13:52:45.228Z,49.00
2018-04-17T13:57:48.446Z,51.00
2018-04-17T14:02:51.671Z,50.90
2018-04-17T14:07:55.103Z,52.10
2018-04-17T14:12:58.778Z,49.20
2018-04-17T14:18:02.010Z,49.20
2018-04-17T14:23:05.599Z,48.60
2018-04-17T14:28:08.819Z,48.50
2018-04-17T14:33:12.042Z,49.30
2018-04-17T14:38:15.651Z,50.10
2018-04-17T14:43:18.890Z,50.10
2018-04-17T14:48:22.402Z,51.40
2018-04-17T14:53:26.122Z,51.90
2018-04-17T14:58:29.345Z,51.40
2018-04-17T15:03:32.642Z,50.20
2018-04-17T15:08:36.258Z,51.80
2018-04-17T15:13:39.483Z,51.80
2018-04-17T15:18:42.739Z,53.20
2018-04-17T15:23:46.347Z,53.10
2018-04-17T15:45:16.069Z,53.70
2018-04-17T15:50:19.912Z,54.80
2018-04-17T15:55:23.305Z,54.80
2018-04-17T16:11:24.765Z,51.30
2018-04-17T16:16:31.031Z,51.50
2018-04-17T16:21:34.488Z,50.80
2018-04-17T16:26:37.712Z,50.20
2018-04-17T16:31:41.026Z,46.90
2018-04-17T16:36:44.240Z,44.90
2018-04-17T16:41:47.951Z,43.70
2018-04-17T16:46:51.569Z,44.80
2018-04-17T16:51:55.188Z,47.80
2018-04-17T16:56:58.867Z,50.50
2018-04-17T17:02:02.201Z,50.50
2018-04-17T17:07:05.424Z,49.40
2018-04-17T17:12:09.502Z,50.20
2018-04-17T17:17:12.724Z,50.20
2018-04-17T17:22:15.948Z,52.50
2018-04-17T17:27:19.212Z,55.00
2018-04-17T17:32:22.484Z,56.10
2018-04-17T17:37:25.695Z,57.00
2018-04-17T17:42:29.074Z,58.10
2018-04-17T17:47:32.800Z,59.40
2018-04-17T17:52:36.407Z,59.90
2018-04-17T17:57:39.617Z,59.90
2018-04-17T18:02:43.235Z,60.80
2018-04-17T18:07:46.885Z,60.50
2018-04-17T18:12:50.119Z,60.50
2018-04-17T18:17:53.388Z,61.10
2018-04-17T18:22:56.724Z,61.90
2018-04-17T18:27:59.987Z,62.30
2018-04-17T18:33:03.599Z,63.20
2018-04-17T18:38:07.212Z,63.30
2018-04-17T18:43:11.014Z,63.60
2018-04-17T18:48:14.256Z,63.70
2018-04-17T18:53:17.470Z,64.10
2018-04-17T18:58:20.698Z,64.50
2018-04-17T19:03:23.931Z,64.50
2018-04-17T19:08:27.172Z,65.10
2018-04-17T19:13:30.400Z,65.40
2018-04-17T19:18:33.630Z,66.20
2018-04-17T19:23:36.879Z,67.00
2018-04-17T19:28:40.515Z,67.80
2018-04-17T19:33:43.894Z,69.30
2018-04-17T19:38:47.593Z,70.40
2018-04-17T19:43:51.843Z,70.40
2018-04-17T19:48:55.480Z,69.70
2018-04-17T19:53:58.768Z,69.70
2018-04-17T19:59:02.410Z,69.70
2018-04-17T20:04:05.634Z,69.70
2018-04-17T20:09:09.500Z,69.90
2018-04-17T20:14:13.212Z,70.20
2018-04-17T20:19:16.427Z,70.10
2018-04-17T20:24:20.075Z,70.80
2018-04-17T20:29:23.350Z,70.90
2018-04-17T20:34:27.034Z,70.70
2018-04-17T20:39:30.290Z,70.80
2018-04-17T20:44:33.686Z,71.10
2018-04-17T20:49:37.575Z,71.40
2018-04-17T20:54:40.815Z,71.60
2018-04-17T20:59:44.722Z,72.80
2018-04-17T21:04:47.960Z,72.80
2018-04-17T21:09:51.220Z,73.10
2018-04-17T21:14:54.469Z,73.30
2018-04-17T21:19:57.848Z,73.20
2018-04-17T21:25:01.627Z,72.90
2018-04-17T21:30:05.509Z,72.90
2018-04-17T21:35:09.257Z,72.90
2018-04-17T21:40:12.488Z,72.90
2018-04-17T21:45:16.872Z,73.20
2018-04-17T21:50:20.239Z,73.20
2018-04-17T21:55:23.689Z,73.40
2018-04-17T22:00:27.236Z,73.50
2018-04-17T22:05:31.290Z,74.40
2018-04-17T22:10:34.559Z,75.40
2018-04-17T22:15:37.798Z,76.00
2018-04-17T22:20:41.117Z,75.40
2018-04-17T22:25:44.475Z,74.70
2018-04-17T22:30:48.980Z,74.80
2018-04-17T22:35:52.394Z,74.80
2018-04-17T22:40:56.429Z,76.00
2018-04-17T22:45:59.793Z,76.00
2018-04-17T22:51:03.023Z,77.00
2018-04-17T22:56:07.258Z,77.20
2018-04-17T23:01:10.683Z,77.20
2018-04-17T23:06:14.386Z,78.70
2018-04-17T23:11:17.996Z,79.40
2018-04-17T23:16:21.720Z,80.00
2018-04-17T23:21:25.429Z,80.40
2018-04-17T23:26:29.052Z,81.00
2018-04-17T23:31:32.703Z,81.20
2018-04-17T23:36:36.024Z,81.20
2018-04-17T23:41:39.251Z,81.30
2018-04-17T23:46:42.575Z,81.50
2018-04-17T23:51:45.968Z,82.20
2018-04-17T23:56:50.642Z,82.40
